sensor_id;sensor_type;location;lat;lon;timestamp;temperature;humidity
53962;DHT22;39868;53.398;6.564;2022-12-15T00:00:00;2.10;78.00
53962;DHT22;39868;53.398;6.564;2022-12-15T00:02:46;2.10;78.00
53962;DHT22;39868;53.398;6.564;2022-12-15T00:05:32;2.10;78.00
53962;DHT22;39868;53.398;6.564;2022-12-15T00:08:19;2.20;78.00
53962;DHT22;39868;53.398;6.564;2022-12-15T00:11:05;2.20;78.00
53962;DHT22;39868;53.398;6.564;2022-12-15T00:13:51;2.30;78.10
53962;DHT22;39868;53.398;6.564;2022-12-15T00:16:37;2.40;78.10
53962;DHT22;39868;53.398;6.564;2022-12-15T00:19:23;2.40;78.00
53962;DHT22;39868;53.398;6.564;2022-12-15T00:22:09;2.40;78.00
53962;DHT22;39868;53.398;6.564;2022-12-15T00:24:55;2.40;77.90
53962;DHT22;39868;53.398;6.564;2022-12-15T00:27:40;2.40;77.90
53962;DHT22;39868;53.398;6.564;2022-12-15T00:30:26;2.50;77.90
53962;DHT22;39868;53.398;6.564;2022-12-15T00:33:16;2.50;77.90
53962;DHT22;39868;53.398;6.564;2022-12-15T00:36:02;2.50;77.90
53962;DHT22;39868;53.398;6.564;2022-12-15T00:38:48;2.50;77.80
53962;DHT22;39868;53.398;6.564;2022-12-15T00:41:16;2.50;77.80
53962;DHT22;39868;53.398;6.564;2022-12-15T00:43:44;2.50;77.80
53962;DHT22;39868;53.398;6.564;2022-12-15T00:46:12;2.60;77.90
53962;DHT22;39868;53.398;6.564;2022-12-15T00:48:59;2.60;78.00
53962;DHT22;39868;53.398;6.564;2022-12-15T00:51:26;2.60;78.10
53962;DHT22;39868;53.398;6.564;2022-12-15T00:54:12;2.60;78.10
53962;DHT22;39868;53.398;6.564;2022-12-15T00:56:58;2.60;78.10
53962;DHT22;39868;53.398;6.564;2022-12-15T00:59:44;2.70;78.10
53962;DHT22;39868;53.398;6.564;2022-12-15T01:02:30;2.70;78.00
53962;DHT22;39868;53.398;6.564;2022-12-15T01:05:16;2.70;77.90
53962;DHT22;39868;53.398;6.564;2022-12-15T01:08:02;2.70;77.80
53962;DHT22;39868;53.398;6.564;2022-12-15T01:10:48;2.70;77.70
53962;DHT22;39868;53.398;6.564;2022-12-15T01:13:34;2.60;77.60
53962;DHT22;39868;53.398;6.564;2022-12-15T01:16:20;2.60;77.60
53962;DHT22;39868;53.398;6.564;2022-12-15T01:19:07;2.60;77.50
53962;DHT22;39868;53.398;6.564;2022-12-15T01:21:53;2.50;77.40
53962;DHT22;39868;53.398;6.564;2022-12-15T01:24:20;2.50;77.40
53962;DHT22;39868;53.398;6.564;2022-12-15T01:26:48;2.50;77.40
53962;DHT22;39868;53.398;6.564;2022-12-15T01:29:16;2.40;77.40
53962;DHT22;39868;53.398;6.564;2022-12-15T01:31:43;2.40;77.40
53962;DHT22;39868;53.398;6.564;2022-12-15T01:34:16;2.40;77.40
53962;DHT22;39868;53.398;6.564;2022-12-15T01:36:46;2.40;77.40
53962;DHT22;39868;53.398;6.564;2022-12-15T01:39:14;2.40;77.40
53962;DHT22;39868;53.398;6.564;2022-12-15T01:41:41;2.40;77.50
53962;DHT22;39868;53.398;6.564;2022-12-15T01:44:21;2.40;77.50
53962;DHT22;39868;53.398;6.564;2022-12-15T01:46:52;2.40;77.40
53962;DHT22;39868;53.398;6.564;2022-12-15T01:49:25;2.30;77.40
53962;DHT22;39868;53.398;6.564;2022-12-15T01:52:00;2.30;77.40
53962;DHT22;39868;53.398;6.564;2022-12-15T01:54:34;2.30;77.40
53962;DHT22;39868;53.398;6.564;2022-12-15T01:57:09;2.30;77.40
53962;DHT22;39868;53.398;6.564;2022-12-15T01:59:52;2.20;77.40
53962;DHT22;39868;53.398;6.564;2022-12-15T02:02:24;2.20;77.40
53962;DHT22;39868;53.398;6.564;2022-12-15T02:04:54;2.20;77.40
53962;DHT22;39868;53.398;6.564;2022-12-15T02:07:23;2.20;77.50
53962;DHT22;39868;53.398;6.564;2022-12-15T02:09:55;2.20;77.50
53962;DHT22;39868;53.398;6.564;2022-12-15T02:13:07;2.20;77.50
53962;DHT22;39868;53.398;6.564;2022-12-15T02:15:29;2.10;77.50
53962;DHT22;39868;53.398;6.564;2022-12-15T02:21:12;2.10;77.60
53962;DHT22;39868;53.398;6.564;2022-12-15T02:29:46;2.10;77.80
53962;DHT22;39868;53.398;6.564;2022-12-15T02:32:23;2.10;77.80
53962;DHT22;39868;53.398;6.564;2022-12-15T02:35:02;2.10;77.90
53962;DHT22;39868;53.398;6.564;2022-12-15T02:37:34;2.20;78.00
53962;DHT22;39868;53.398;6.564;2022-12-15T02:40:05;2.20;78.10
53962;DHT22;39868;53.398;6.564;2022-12-15T02:42:37;2.20;79.00
53962;DHT22;39868;53.398;6.564;2022-12-15T02:45:09;2.30;78.90
53962;DHT22;39868;53.398;6.564;2022-12-15T02:59:12;2.90;79.80
53962;DHT22;39868;53.398;6.564;2022-12-15T03:02:00;3.00;79.80
53962;DHT22;39868;53.398;6.564;2022-12-15T03:04:28;3.10;79.70
53962;DHT22;39868;53.398;6.564;2022-12-15T03:07:03;3.20;79.70
53962;DHT22;39868;53.398;6.564;2022-12-15T03:09:31;3.20;79.70
53962;DHT22;39868;53.398;6.564;2022-12-15T03:11:59;3.30;79.60
53962;DHT22;39868;53.398;6.564;2022-12-15T03:14:26;3.40;79.60
53962;DHT22;39868;53.398;6.564;2022-12-15T03:16:54;3.40;79.50
53962;DHT22;39868;53.398;6.564;2022-12-15T03:19:22;3.40;79.40
53962;DHT22;39868;53.398;6.564;2022-12-15T03:21:50;3.40;79.30
53962;DHT22;39868;53.398;6.564;2022-12-15T03:24:17;3.40;79.30
53962;DHT22;39868;53.398;6.564;2022-12-15T03:26:45;3.40;79.20
53962;DHT22;39868;53.398;6.564;2022-12-15T03:29:16;3.40;79.10
53962;DHT22;39868;53.398;6.564;2022-12-15T03:31:44;3.40;79.00
53962;DHT22;39868;53.398;6.564;2022-12-15T03:34:15;3.40;79.00
53962;DHT22;39868;53.398;6.564;2022-12-15T03:36:43;3.40;78.90
53962;DHT22;39868;53.398;6.564;2022-12-15T03:39:11;3.40;78.80
53962;DHT22;39868;53.398;6.564;2022-12-15T03:41:38;3.30;78.70
53962;DHT22;39868;53.398;6.564;2022-12-15T03:44:08;3.30;78.60
53962;DHT22;39868;53.398;6.564;2022-12-15T03:46:35;3.30;78.50
53962;DHT22;39868;53.398;6.564;2022-12-15T03:49:03;3.30;78.50
53962;DHT22;39868;53.398;6.564;2022-12-15T03:51:30;3.20;78.40
53962;DHT22;39868;53.398;6.564;2022-12-15T03:53:58;3.20;78.30
53962;DHT22;39868;53.398;6.564;2022-12-15T03:56:25;3.10;78.20
53962;DHT22;39868;53.398;6.564;2022-12-15T03:58:53;3.10;78.20
53962;DHT22;39868;53.398;6.564;2022-12-15T04:01:30;3.10;78.10
53962;DHT22;39868;53.398;6.564;2022-12-15T04:03:59;3.00;78.10
53962;DHT22;39868;53.398;6.564;2022-12-15T04:06:28;3.00;78.10
53962;DHT22;39868;53.398;6.564;2022-12-15T04:08:56;3.00;78.10
53962;DHT22;39868;53.398;6.564;2022-12-15T04:11:24;3.00;78.10
53962;DHT22;39868;53.398;6.564;2022-12-15T04:13:51;2.90;78.20
53962;DHT22;39868;53.398;6.564;2022-12-15T04:16:20;2.90;78.30
53962;DHT22;39868;53.398;6.564;2022-12-15T04:18:47;2.90;78.30
53962;DHT22;39868;53.398;6.564;2022-12-15T04:21:35;2.90;78.50
53962;DHT22;39868;53.398;6.564;2022-12-15T04:24:03;2.90;78.60
53962;DHT22;39868;53.398;6.564;2022-12-15T04:26:49;2.90;78.60
53962;DHT22;39868;53.398;6.564;2022-12-15T04:29:35;3.00;78.80
53962;DHT22;39868;53.398;6.564;2022-12-15T04:32:21;3.00;78.90
53962;DHT22;39868;53.398;6.564;2022-12-15T04:35:08;3.00;79.00
53962;DHT22;39868;53.398;6.564;2022-12-15T04:37:55;3.00;79.00
53962;DHT22;39868;53.398;6.564;2022-12-15T04:40:41;3.00;79.00
53962;DHT22;39868;53.398;6.564;2022-12-15T04:43:27;3.00;79.00
53962;DHT22;39868;53.398;6.564;2022-12-15T04:46:13;3.00;78.90
53962;DHT22;39868;53.398;6.564;2022-12-15T04:48:59;3.00;78.90
53962;DHT22;39868;53.398;6.564;2022-12-15T04:51:45;3.00;78.80
53962;DHT22;39868;53.398;6.564;2022-12-15T04:54:31;3.00;78.70
53962;DHT22;39868;53.398;6.564;2022-12-15T04:57:17;3.00;78.80
53962;DHT22;39868;53.398;6.564;2022-12-15T05:00:04;3.00;78.80
53962;DHT22;39868;53.398;6.564;2022-12-15T05:02:50;3.00;78.80
53962;DHT22;39868;53.398;6.564;2022-12-15T05:05:43;3.00;78.70
53962;DHT22;39868;53.398;6.564;2022-12-15T05:08:29;3.00;78.70
53962;DHT22;39868;53.398;6.564;2022-12-15T05:11:16;3.00;78.70
53962;DHT22;39868;53.398;6.564;2022-12-15T05:14:02;2.90;78.70
53962;DHT22;39868;53.398;6.564;2022-12-15T05:16:48;3.00;78.70
53962;DHT22;39868;53.398;6.564;2022-12-15T05:19:34;3.00;78.60
53962;DHT22;39868;53.398;6.564;2022-12-15T05:22:20;2.90;78.50
53962;DHT22;39868;53.398;6.564;2022-12-15T05:25:06;2.90;78.40
53962;DHT22;39868;53.398;6.564;2022-12-15T05:27:52;2.90;78.20
53962;DHT22;39868;53.398;6.564;2022-12-15T05:30:38;2.80;78.10
53962;DHT22;39868;53.398;6.564;2022-12-15T05:33:24;2.80;78.00
53962;DHT22;39868;53.398;6.564;2022-12-15T05:35:55;2.70;78.00
53962;DHT22;39868;53.398;6.564;2022-12-15T05:38:23;2.70;77.90
53962;DHT22;39868;53.398;6.564;2022-12-15T05:40:51;2.70;78.00
53962;DHT22;39868;53.398;6.564;2022-12-15T05:43:18;2.60;77.90
53962;DHT22;39868;53.398;6.564;2022-12-15T05:45:52;2.60;78.00
53962;DHT22;39868;53.398;6.564;2022-12-15T05:48:20;2.60;78.00
53962;DHT22;39868;53.398;6.564;2022-12-15T05:50:47;2.60;78.00
53962;DHT22;39868;53.398;6.564;2022-12-15T05:53:15;2.60;78.10
53962;DHT22;39868;53.398;6.564;2022-12-15T05:55:43;2.60;78.20
53962;DHT22;39868;53.398;6.564;2022-12-15T05:58:10;2.50;78.20
53962;DHT22;39868;53.398;6.564;2022-12-15T06:00:38;2.60;78.30
53962;DHT22;39868;53.398;6.564;2022-12-15T06:03:05;2.60;78.40
53962;DHT22;39868;53.398;6.564;2022-12-15T06:05:33;2.60;78.60
53962;DHT22;39868;53.398;6.564;2022-12-15T06:08:01;2.60;78.70
53962;DHT22;39868;53.398;6.564;2022-12-15T06:10:28;2.70;78.90
53962;DHT22;39868;53.398;6.564;2022-12-15T06:12:56;2.70;79.00
53962;DHT22;39868;53.398;6.564;2022-12-15T06:15:23;2.70;79.00
53962;DHT22;39868;53.398;6.564;2022-12-15T06:17:51;2.80;79.00
53962;DHT22;39868;53.398;6.564;2022-12-15T06:20:19;2.80;79.00
53962;DHT22;39868;53.398;6.564;2022-12-15T06:22:47;2.80;79.00
53962;DHT22;39868;53.398;6.564;2022-12-15T06:25:16;2.90;79.00
53962;DHT22;39868;53.398;6.564;2022-12-15T06:27:44;2.90;79.00
53962;DHT22;39868;53.398;6.564;2022-12-15T06:30:11;2.90;79.50
53962;DHT22;39868;53.398;6.564;2022-12-15T06:32:39;2.90;78.80
53962;DHT22;39868;53.398;6.564;2022-12-15T06:35:07;2.90;78.80
53962;DHT22;39868;53.398;6.564;2022-12-15T06:37:34;2.90;78.70
53962;DHT22;39868;53.398;6.564;2022-12-15T06:40:02;2.90;78.70
53962;DHT22;39868;53.398;6.564;2022-12-15T06:42:29;3.00;78.80
53962;DHT22;39868;53.398;6.564;2022-12-15T06:44:57;3.00;78.80
53962;DHT22;39868;53.398;6.564;2022-12-15T06:47:24;3.00;78.80
53962;DHT22;39868;53.398;6.564;2022-12-15T06:49:52;3.00;78.80
53962;DHT22;39868;53.398;6.564;2022-12-15T06:52:19;3.00;78.80
53962;DHT22;39868;53.398;6.564;2022-12-15T06:54:47;3.10;79.40
53962;DHT22;39868;53.398;6.564;2022-12-15T06:57:14;3.10;78.90
53962;DHT22;39868;53.398;6.564;2022-12-15T06:59:42;3.10;78.90
53962;DHT22;39868;53.398;6.564;2022-12-15T07:02:17;3.10;78.90
53962;DHT22;39868;53.398;6.564;2022-12-15T07:04:52;3.20;78.90
53962;DHT22;39868;53.398;6.564;2022-12-15T07:07:20;3.20;78.80
53962;DHT22;39868;53.398;6.564;2022-12-15T07:09:47;3.20;78.80
53962;DHT22;39868;53.398;6.564;2022-12-15T07:12:15;3.20;78.70
53962;DHT22;39868;53.398;6.564;2022-12-15T07:14:43;3.20;78.60
53962;DHT22;39868;53.398;6.564;2022-12-15T07:17:19;3.20;78.60
53962;DHT22;39868;53.398;6.564;2022-12-15T07:19:46;3.20;78.50
53962;DHT22;39868;53.398;6.564;2022-12-15T07:22:14;3.20;78.50
53962;DHT22;39868;53.398;6.564;2022-12-15T07:24:41;3.20;78.50
53962;DHT22;39868;53.398;6.564;2022-12-15T07:27:09;3.20;78.40
53962;DHT22;39868;53.398;6.564;2022-12-15T07:29:37;3.20;78.40
53962;DHT22;39868;53.398;6.564;2022-12-15T07:32:05;3.20;78.30
53962;DHT22;39868;53.398;6.564;2022-12-15T07:34:32;3.20;78.30
53962;DHT22;39868;53.398;6.564;2022-12-15T07:37:00;3.20;78.30
53962;DHT22;39868;53.398;6.564;2022-12-15T07:39:28;3.20;78.20
53962;DHT22;39868;53.398;6.564;2022-12-15T07:41:55;3.20;78.30
53962;DHT22;39868;53.398;6.564;2022-12-15T07:44:23;3.20;78.30
53962;DHT22;39868;53.398;6.564;2022-12-15T07:46:50;3.20;78.30
53962;DHT22;39868;53.398;6.564;2022-12-15T07:49:18;3.20;78.30
53962;DHT22;39868;53.398;6.564;2022-12-15T07:51:46;3.20;78.30
53962;DHT22;39868;53.398;6.564;2022-12-15T07:54:14;3.20;78.30
53962;DHT22;39868;53.398;6.564;2022-12-15T07:56:42;3.20;78.20
53962;DHT22;39868;53.398;6.564;2022-12-15T07:59:15;3.20;78.20
53962;DHT22;39868;53.398;6.564;2022-12-15T08:01:43;3.20;78.20
53962;DHT22;39868;53.398;6.564;2022-12-15T08:04:11;3.20;78.20
53962;DHT22;39868;53.398;6.564;2022-12-15T08:06:38;3.20;78.20
53962;DHT22;39868;53.398;6.564;2022-12-15T08:09:06;3.20;78.20
53962;DHT22;39868;53.398;6.564;2022-12-15T08:11:34;3.20;78.20
53962;DHT22;39868;53.398;6.564;2022-12-15T08:14:01;3.20;78.30
53962;DHT22;39868;53.398;6.564;2022-12-15T08:16:33;3.30;78.30
53962;DHT22;39868;53.398;6.564;2022-12-15T08:19:06;3.30;78.40
53962;DHT22;39868;53.398;6.564;2022-12-15T08:21:38;3.30;78.40
53962;DHT22;39868;53.398;6.564;2022-12-15T08:24:07;3.30;78.40
53962;DHT22;39868;53.398;6.564;2022-12-15T08:26:35;3.40;78.40
53962;DHT22;39868;53.398;6.564;2022-12-15T08:29:06;3.40;78.40
53962;DHT22;39868;53.398;6.564;2022-12-15T08:31:54;3.40;78.40
53962;DHT22;39868;53.398;6.564;2022-12-15T08:34:21;3.40;78.40
53962;DHT22;39868;53.398;6.564;2022-12-15T08:36:49;3.50;78.40
53962;DHT22;39868;53.398;6.564;2022-12-15T08:39:17;3.50;78.30
53962;DHT22;39868;53.398;6.564;2022-12-15T08:41:45;3.50;78.30
53962;DHT22;39868;53.398;6.564;2022-12-15T08:44:12;3.50;78.20
53962;DHT22;39868;53.398;6.564;2022-12-15T08:46:40;3.60;78.20
53962;DHT22;39868;53.398;6.564;2022-12-15T08:49:09;3.60;78.10
53962;DHT22;39868;53.398;6.564;2022-12-15T08:51:40;3.60;78.10
53962;DHT22;39868;53.398;6.564;2022-12-15T08:54:08;3.60;78.10
53962;DHT22;39868;53.398;6.564;2022-12-15T08:56:35;3.60;78.10
53962;DHT22;39868;53.398;6.564;2022-12-15T08:59:03;3.60;78.10
53962;DHT22;39868;53.398;6.564;2022-12-15T09:01:31;3.70;78.20
53962;DHT22;39868;53.398;6.564;2022-12-15T09:03:59;3.70;78.20
53962;DHT22;39868;53.398;6.564;2022-12-15T09:06:30;3.80;78.30
53962;DHT22;39868;53.398;6.564;2022-12-15T09:09:00;3.80;78.20
53962;DHT22;39868;53.398;6.564;2022-12-15T09:11:29;3.90;78.30
53962;DHT22;39868;53.398;6.564;2022-12-15T09:13:57;3.90;78.20
53962;DHT22;39868;53.398;6.564;2022-12-15T09:16:25;4.00;78.30
53962;DHT22;39868;53.398;6.564;2022-12-15T09:18:57;4.00;78.20
53962;DHT22;39868;53.398;6.564;2022-12-15T09:21:26;4.10;78.20
53962;DHT22;39868;53.398;6.564;2022-12-15T09:23:56;4.10;78.20
53962;DHT22;39868;53.398;6.564;2022-12-15T09:26:29;4.20;78.30
53962;DHT22;39868;53.398;6.564;2022-12-15T09:28:56;4.30;78.30
53962;DHT22;39868;53.398;6.564;2022-12-15T09:31:27;4.40;78.40
53962;DHT22;39868;53.398;6.564;2022-12-15T09:33:56;4.50;78.40
53962;DHT22;39868;53.398;6.564;2022-12-15T09:36:25;4.60;78.40
53962;DHT22;39868;53.398;6.564;2022-12-15T09:38:53;4.60;78.40
53962;DHT22;39868;53.398;6.564;2022-12-15T09:41:27;4.70;78.30
53962;DHT22;39868;53.398;6.564;2022-12-15T09:44:02;4.70;78.20
53962;DHT22;39868;53.398;6.564;2022-12-15T09:52:10;5.00;78.10
53962;DHT22;39868;53.398;6.564;2022-12-15T09:54:39;5.10;78.00
53962;DHT22;39868;53.398;6.564;2022-12-15T09:59:59;5.10;77.80
53962;DHT22;39868;53.398;6.564;2022-12-15T10:08:47;5.20;77.40
53962;DHT22;39868;53.398;6.564;2022-12-15T10:22:36;5.30;77.10
53962;DHT22;39868;53.398;6.564;2022-12-15T10:25:20;5.30;77.20
53962;DHT22;39868;53.398;6.564;2022-12-15T10:33:21;5.40;77.20
53962;DHT22;39868;53.398;6.564;2022-12-15T10:35:52;5.40;77.10
53962;DHT22;39868;53.398;6.564;2022-12-15T10:38:35;5.40;77.00
53962;DHT22;39868;53.398;6.564;2022-12-15T10:41:06;5.40;76.90
53962;DHT22;39868;53.398;6.564;2022-12-15T10:43:37;5.40;76.80
53962;DHT22;39868;53.398;6.564;2022-12-15T10:48:43;5.40;76.80
53962;DHT22;39868;53.398;6.564;2022-12-15T10:51:21;5.40;76.70
53962;DHT22;39868;53.398;6.564;2022-12-15T10:54:05;5.40;76.80
53962;DHT22;39868;53.398;6.564;2022-12-15T10:56:57;5.50;76.80
53962;DHT22;39868;53.398;6.564;2022-12-15T10:59:35;5.50;76.80
53962;DHT22;39868;53.398;6.564;2022-12-15T11:02:29;5.50;76.80
53962;DHT22;39868;53.398;6.564;2022-12-15T11:05:05;5.50;76.90
53962;DHT22;39868;53.398;6.564;2022-12-15T11:07:51;5.50;76.90
53962;DHT22;39868;53.398;6.564;2022-12-15T11:13:09;5.50;76.90
53962;DHT22;39868;53.398;6.564;2022-12-15T11:15:53;5.60;76.80
53962;DHT22;39868;53.398;6.564;2022-12-15T11:21:34;5.60;76.70
53962;DHT22;39868;53.398;6.564;2022-12-15T11:24:30;5.60;76.70
53962;DHT22;39868;53.398;6.564;2022-12-15T11:29:51;5.70;76.70
53962;DHT22;39868;53.398;6.564;2022-12-15T11:32:27;5.80;76.70
53962;DHT22;39868;53.398;6.564;2022-12-15T11:34:55;5.80;76.70
53962;DHT22;39868;53.398;6.564;2022-12-15T11:45:56;6.00;76.60
53962;DHT22;39868;53.398;6.564;2022-12-15T11:51:45;6.20;76.60
53962;DHT22;39868;53.398;6.564;2022-12-15T11:54:18;6.30;76.50
53962;DHT22;39868;53.398;6.564;2022-12-15T11:57:16;6.30;76.40
53962;DHT22;39868;53.398;6.564;2022-12-15T12:00:07;6.40;76.30
53962;DHT22;39868;53.398;6.564;2022-12-15T12:02:48;6.50;76.20
53962;DHT22;39868;53.398;6.564;2022-12-15T12:11:11;6.70;76.00
53962;DHT22;39868;53.398;6.564;2022-12-15T12:21:51;6.90;75.60
53962;DHT22;39868;53.398;6.564;2022-12-15T12:26:58;7.00;75.30
53962;DHT22;39868;53.398;6.564;2022-12-15T12:29:50;7.00;75.20
53962;DHT22;39868;53.398;6.564;2022-12-15T12:38:04;7.10;75.20
53962;DHT22;39868;53.398;6.564;2022-12-15T12:40:50;7.00;75.00
53962;DHT22;39868;53.398;6.564;2022-12-15T12:43:30;7.00;75.60
53962;DHT22;39868;53.398;6.564;2022-12-15T12:46:01;7.00;74.90
53962;DHT22;39868;53.398;6.564;2022-12-15T12:48:58;7.00;75.00
53962;DHT22;39868;53.398;6.564;2022-12-15T12:51:40;7.10;74.90
53962;DHT22;39868;53.398;6.564;2022-12-15T13:00:10;7.20;75.30
53962;DHT22;39868;53.398;6.564;2022-12-15T13:02:44;7.20;75.30
53962;DHT22;39868;53.398;6.564;2022-12-15T13:05:33;7.30;75.20
53962;DHT22;39868;53.398;6.564;2022-12-15T13:10:34;7.30;75.00
53962;DHT22;39868;53.398;6.564;2022-12-15T13:16:16;7.30;74.40
53962;DHT22;39868;53.398;6.564;2022-12-15T13:19:07;7.30;74.30
53962;DHT22;39868;53.398;6.564;2022-12-15T13:24:33;7.20;74.00
53962;DHT22;39868;53.398;6.564;2022-12-15T13:29:52;7.20;74.20
53962;DHT22;39868;53.398;6.564;2022-12-15T13:32:41;7.20;74.30
53962;DHT22;39868;53.398;6.564;2022-12-15T13:48:26;7.10;74.30
53962;DHT22;39868;53.398;6.564;2022-12-15T13:53:36;7.00;74.20
53962;DHT22;39868;53.398;6.564;2022-12-15T13:58:45;6.90;74.00
53962;DHT22;39868;53.398;6.564;2022-12-15T14:01:24;6.90;74.10
53962;DHT22;39868;53.398;6.564;2022-12-15T14:03:58;6.80;74.00
53962;DHT22;39868;53.398;6.564;2022-12-15T14:06:35;6.80;74.00
53962;DHT22;39868;53.398;6.564;2022-12-15T14:09:04;6.70;73.70
53962;DHT22;39868;53.398;6.564;2022-12-15T14:11:34;6.70;73.80
53962;DHT22;39868;53.398;6.564;2022-12-15T14:14:22;6.60;73.80
53962;DHT22;39868;53.398;6.564;2022-12-15T14:16:58;6.50;73.80
53962;DHT22;39868;53.398;6.564;2022-12-15T14:19:39;6.50;74.00
53962;DHT22;39868;53.398;6.564;2022-12-15T14:22:24;6.40;74.00
53962;DHT22;39868;53.398;6.564;2022-12-15T14:25:19;6.40;74.00
53962;DHT22;39868;53.398;6.564;2022-12-15T14:27:47;6.30;74.10
53962;DHT22;39868;53.398;6.564;2022-12-15T14:30:30;6.30;74.20
53962;DHT22;39868;53.398;6.564;2022-12-15T14:33:07;6.20;74.30
53962;DHT22;39868;53.398;6.564;2022-12-15T14:35:41;6.20;74.40
53962;DHT22;39868;53.398;6.564;2022-12-15T14:38:26;6.20;74.50
53962;DHT22;39868;53.398;6.564;2022-12-15T14:40:56;6.20;74.50
53962;DHT22;39868;53.398;6.564;2022-12-15T14:43:33;6.20;74.60
53962;DHT22;39868;53.398;6.564;2022-12-15T14:46:09;6.10;74.60
53962;DHT22;39868;53.398;6.564;2022-12-15T14:48:38;6.10;74.60
53962;DHT22;39868;53.398;6.564;2022-12-15T14:51:12;6.10;74.60
53962;DHT22;39868;53.398;6.564;2022-12-15T14:53:42;6.10;74.60
53962;DHT22;39868;53.398;6.564;2022-12-15T14:56:21;6.00;74.50
53962;DHT22;39868;53.398;6.564;2022-12-15T14:59:18;6.00;74.70
53962;DHT22;39868;53.398;6.564;2022-12-15T15:01:58;6.00;74.70
53962;DHT22;39868;53.398;6.564;2022-12-15T15:04:32;6.00;74.80
53962;DHT22;39868;53.398;6.564;2022-12-15T15:07:02;5.90;74.80
53962;DHT22;39868;53.398;6.564;2022-12-15T15:09:39;5.90;74.90
53962;DHT22;39868;53.398;6.564;2022-12-15T15:12:18;5.90;74.90
53962;DHT22;39868;53.398;6.564;2022-12-15T15:15:01;5.90;75.00
53962;DHT22;39868;53.398;6.564;2022-12-15T15:17:38;5.90;75.10
53962;DHT22;39868;53.398;6.564;2022-12-15T15:22:53;5.80;75.10
53962;DHT22;39868;53.398;6.564;2022-12-15T15:25:48;5.80;75.10
53962;DHT22;39868;53.398;6.564;2022-12-15T15:30:57;5.70;75.10
53962;DHT22;39868;53.398;6.564;2022-12-15T15:33:26;5.60;75.10
53962;DHT22;39868;53.398;6.564;2022-12-15T15:35:56;5.60;75.10
53962;DHT22;39868;53.398;6.564;2022-12-15T15:38:31;5.50;75.10
53962;DHT22;39868;53.398;6.564;2022-12-15T15:41:25;5.50;75.20
53962;DHT22;39868;53.398;6.564;2022-12-15T15:43:48;5.50;75.30
53962;DHT22;39868;53.398;6.564;2022-12-15T15:46:21;5.40;75.30
53962;DHT22;39868;53.398;6.564;2022-12-15T15:49:08;5.40;75.40
53962;DHT22;39868;53.398;6.564;2022-12-15T15:51:39;5.30;75.40
53962;DHT22;39868;53.398;6.564;2022-12-15T15:54:13;5.30;75.40
53962;DHT22;39868;53.398;6.564;2022-12-15T15:56:41;5.20;75.40
53962;DHT22;39868;53.398;6.564;2022-12-15T15:59:17;5.20;75.50
53962;DHT22;39868;53.398;6.564;2022-12-15T16:01:51;5.20;75.50
53962;DHT22;39868;53.398;6.564;2022-12-15T16:04:20;5.10;75.60
53962;DHT22;39868;53.398;6.564;2022-12-15T16:06:49;5.10;75.70
53962;DHT22;39868;53.398;6.564;2022-12-15T16:09:18;5.00;75.70
53962;DHT22;39868;53.398;6.564;2022-12-15T16:11:46;5.00;75.70
53962;DHT22;39868;53.398;6.564;2022-12-15T16:14:15;5.00;75.80
53962;DHT22;39868;53.398;6.564;2022-12-15T16:16:43;4.90;75.80
53962;DHT22;39868;53.398;6.564;2022-12-15T16:19:11;4.90;75.90
53962;DHT22;39868;53.398;6.564;2022-12-15T16:21:39;4.90;75.90
53962;DHT22;39868;53.398;6.564;2022-12-15T16:24:14;4.90;76.00
53962;DHT22;39868;53.398;6.564;2022-12-15T16:26:47;4.80;76.00
53962;DHT22;39868;53.398;6.564;2022-12-15T16:29:17;4.80;76.10
53962;DHT22;39868;53.398;6.564;2022-12-15T16:31:45;4.80;76.10
53962;DHT22;39868;53.398;6.564;2022-12-15T16:34:14;4.70;76.10
53962;DHT22;39868;53.398;6.564;2022-12-15T16:36:47;4.70;76.10
53962;DHT22;39868;53.398;6.564;2022-12-15T16:39:22;4.70;76.20
53962;DHT22;39868;53.398;6.564;2022-12-15T16:41:52;4.70;76.30
53962;DHT22;39868;53.398;6.564;2022-12-15T16:44:21;4.70;76.30
53962;DHT22;39868;53.398;6.564;2022-12-15T16:46:48;4.70;76.40
53962;DHT22;39868;53.398;6.564;2022-12-15T16:49:16;4.60;76.40
53962;DHT22;39868;53.398;6.564;2022-12-15T16:51:49;4.60;76.50
53962;DHT22;39868;53.398;6.564;2022-12-15T16:54:21;4.70;76.60
53962;DHT22;39868;53.398;6.564;2022-12-15T16:56:50;4.70;76.70
53962;DHT22;39868;53.398;6.564;2022-12-15T16:59:21;4.70;76.70
53962;DHT22;39868;53.398;6.564;2022-12-15T17:02:27;4.70;76.70
53962;DHT22;39868;53.398;6.564;2022-12-15T17:04:56;4.70;76.80
53962;DHT22;39868;53.398;6.564;2022-12-15T17:07:25;4.60;76.70
53962;DHT22;39868;53.398;6.564;2022-12-15T17:09:54;4.60;76.70
53962;DHT22;39868;53.398;6.564;2022-12-15T17:12:22;4.70;76.90
53962;DHT22;39868;53.398;6.564;2022-12-15T17:14:49;4.70;76.80
53962;DHT22;39868;53.398;6.564;2022-12-15T17:17:18;4.60;76.80
53962;DHT22;39868;53.398;6.564;2022-12-15T17:19:45;4.70;76.90
53962;DHT22;39868;53.398;6.564;2022-12-15T17:22:35;4.60;76.80
53962;DHT22;39868;53.398;6.564;2022-12-15T17:25:03;4.60;76.80
53962;DHT22;39868;53.398;6.564;2022-12-15T17:27:31;4.60;76.80
53962;DHT22;39868;53.398;6.564;2022-12-15T17:29:59;4.60;76.80
53962;DHT22;39868;53.398;6.564;2022-12-15T17:32:27;4.60;76.80
53962;DHT22;39868;53.398;6.564;2022-12-15T17:34:55;4.60;76.80
53962;DHT22;39868;53.398;6.564;2022-12-15T17:37:23;4.60;76.90
53962;DHT22;39868;53.398;6.564;2022-12-15T17:39:55;4.60;77.00
53962;DHT22;39868;53.398;6.564;2022-12-15T17:42:22;4.50;77.00
53962;DHT22;39868;53.398;6.564;2022-12-15T17:44:50;4.60;77.00
53962;DHT22;39868;53.398;6.564;2022-12-15T17:47:18;4.50;77.00
53962;DHT22;39868;53.398;6.564;2022-12-15T17:49:45;4.50;77.00
53962;DHT22;39868;53.398;6.564;2022-12-15T17:52:30;4.50;77.00
53962;DHT22;39868;53.398;6.564;2022-12-15T17:55:01;4.50;77.00
53962;DHT22;39868;53.398;6.564;2022-12-15T17:57:30;4.50;77.10
53962;DHT22;39868;53.398;6.564;2022-12-15T17:59:58;4.50;77.10
53962;DHT22;39868;53.398;6.564;2022-12-15T18:02:31;4.40;77.00
53962;DHT22;39868;53.398;6.564;2022-12-15T18:04:59;4.40;77.00
53962;DHT22;39868;53.398;6.564;2022-12-15T18:07:26;4.40;77.10
53962;DHT22;39868;53.398;6.564;2022-12-15T18:09:54;4.40;77.10
53962;DHT22;39868;53.398;6.564;2022-12-15T18:12:24;4.30;77.00
53962;DHT22;39868;53.398;6.564;2022-12-15T18:14:54;4.40;77.10
53962;DHT22;39868;53.398;6.564;2022-12-15T18:17:22;4.30;77.10
53962;DHT22;39868;53.398;6.564;2022-12-15T18:19:50;4.30;77.20
53962;DHT22;39868;53.398;6.564;2022-12-15T18:22:23;4.30;77.20
53962;DHT22;39868;53.398;6.564;2022-12-15T18:24:52;4.30;77.20
53962;DHT22;39868;53.398;6.564;2022-12-15T18:27:23;4.30;77.20
53962;DHT22;39868;53.398;6.564;2022-12-15T18:29:51;4.30;77.20
53962;DHT22;39868;53.398;6.564;2022-12-15T18:32:24;4.30;77.30
53962;DHT22;39868;53.398;6.564;2022-12-15T18:34:53;4.20;77.20
53962;DHT22;39868;53.398;6.564;2022-12-15T18:37:22;4.30;77.30
53962;DHT22;39868;53.398;6.564;2022-12-15T18:39:52;4.30;77.40
53962;DHT22;39868;53.398;6.564;2022-12-15T18:42:24;4.20;77.30
53962;DHT22;39868;53.398;6.564;2022-12-15T18:44:51;4.20;77.30